sensor_id;sensor_type;location;lat;lon;timestamp;pressure;altitude;pressure_sealevel;temperature;humidity
76553;BME280;65395;53.168;18.156;2023-12-14T00:02:20;100243.79;;;2.35;90.79
76553;BME280;65395;53.168;18.156;2023-12-14T00:04:50;100240.30;;;2.35;90.70
76553;BME280;65395;53.168;18.156;2023-12-14T00:07:17;100244.30;;;2.35;90.79
76553;BME280;65395;53.168;18.156;2023-12-14T00:09:44;100243.95;;;2.36;90.85
76553;BME280;65395;53.168;18.156;2023-12-14T00:12:11;100249.90;;;2.38;90.81
76553;BME280;65395;53.168;18.156;2023-12-14T00:14:38;100250.21;;;2.38;90.62
76553;BME280;65395;53.168;18.156;2023-12-14T00:17:05;100247.45;;;2.38;90.61
76553;BME280;65395;53.168;18.156;2023-12-14T00:19:31;100254.85;;;2.38;90.62
76553;BME280;65395;53.168;18.156;2023-12-14T00:21:58;100253.95;;;2.37;90.61
76553;BME280;65395;53.168;18.156;2023-12-14T00:24:25;100251.98;;;2.37;90.55
76553;BME280;65395;53.168;18.156;2023-12-14T00:26:52;100256.45;;;2.37;90.56
76553;BME280;65395;53.168;18.156;2023-12-14T00:29:19;100254.83;;;2.33;90.54
76553;BME280;65395;53.168;18.156;2023-12-14T00:31:46;100262.48;;;2.38;90.58
76553;BME280;65395;53.168;18.156;2023-12-14T00:34:13;100260.19;;;2.37;90.55
76553;BME280;65395;53.168;18.156;2023-12-14T00:36:40;100264.77;;;2.37;90.49
76553;BME280;65395;53.168;18.156;2023-12-14T00:39:06;100266.58;;;2.35;90.47
76553;BME280;65395;53.168;18.156;2023-12-14T00:41:33;100264.01;;;2.34;90.48
76553;BME280;65395;53.168;18.156;2023-12-14T00:44:00;100264.41;;;2.33;90.50
76553;BME280;65395;53.168;18.156;2023-12-14T00:46:27;100267.36;;;2.32;90.42
76553;BME280;65395;53.168;18.156;2023-12-14T00:48:54;100266.88;;;2.31;90.52
76553;BME280;65395;53.168;18.156;2023-12-14T00:51:20;100268.02;;;2.31;90.51
76553;BME280;65395;53.168;18.156;2023-12-14T00:53:47;100267.82;;;2.31;90.55
76553;BME280;65395;53.168;18.156;2023-12-14T00:56:14;100270.33;;;2.31;90.52
76553;BME280;65395;53.168;18.156;2023-12-14T00:58:41;100269.87;;;2.28;90.44
76553;BME280;65395;53.168;18.156;2023-12-14T01:01:08;100273.11;;;2.26;90.46
76553;BME280;65395;53.168;18.156;2023-12-14T01:03:35;100277.42;;;2.26;90.42
76553;BME280;65395;53.168;18.156;2023-12-14T01:06:02;100277.91;;;2.24;90.57
76553;BME280;65395;53.168;18.156;2023-12-14T01:08:29;100279.23;;;2.26;90.63
76553;BME280;65395;53.168;18.156;2023-12-14T01:10:56;100281.36;;;2.28;90.62
76553;BME280;65395;53.168;18.156;2023-12-14T01:13:23;100282.77;;;2.29;90.56
76553;BME280;65395;53.168;18.156;2023-12-14T01:15:50;100278.60;;;2.28;90.40
76553;BME280;65395;53.168;18.156;2023-12-14T01:18:17;100284.98;;;2.27;90.44
76553;BME280;65395;53.168;18.156;2023-12-14T01:20:44;100285.02;;;2.26;90.42
76553;BME280;65395;53.168;18.156;2023-12-14T01:23:11;100287.11;;;2.23;90.43
76553;BME280;65395;53.168;18.156;2023-12-14T01:25:37;100285.64;;;2.23;90.54
76553;BME280;65395;53.168;18.156;2023-12-14T01:28:04;100288.14;;;2.22;90.49
76553;BME280;65395;53.168;18.156;2023-12-14T01:30:31;100290.31;;;2.22;90.62
76553;BME280;65395;53.168;18.156;2023-12-14T01:32:58;100289.63;;;2.22;90.56
76553;BME280;65395;53.168;18.156;2023-12-14T01:35:25;100293.17;;;2.21;90.65
76553;BME280;65395;53.168;18.156;2023-12-14T01:37:52;100295.56;;;2.21;90.64
76553;BME280;65395;53.168;18.156;2023-12-14T01:40:19;100297.15;;;2.20;90.59
76553;BME280;65395;53.168;18.156;2023-12-14T01:42:46;100297.69;;;2.18;90.62
76553;BME280;65395;53.168;18.156;2023-12-14T01:45:13;100295.55;;;2.17;90.68
76553;BME280;65395;53.168;18.156;2023-12-14T01:47:43;100297.20;;;2.17;90.67
76553;BME280;65395;53.168;18.156;2023-12-14T01:50:09;100294.74;;;2.16;90.82
76553;BME280;65395;53.168;18.156;2023-12-14T01:52:36;100294.05;;;2.15;90.73
76553;BME280;65395;53.168;18.156;2023-12-14T01:55:03;100296.14;;;2.15;90.69
76553;BME280;65395;53.168;18.156;2023-12-14T01:57:30;100295.14;;;2.14;90.75
76553;BME280;65395;53.168;18.156;2023-12-14T01:59:57;100294.46;;;2.14;90.82
76553;BME280;65395;53.168;18.156;2023-12-14T02:02:24;100294.10;;;2.14;90.86
76553;BME280;65395;53.168;18.156;2023-12-14T02:04:51;100292.86;;;2.14;90.90
76553;BME280;65395;53.168;18.156;2023-12-14T02:07:18;100291.78;;;2.16;90.94
76553;BME280;65395;53.168;18.156;2023-12-14T02:09:45;100289.36;;;2.17;90.84
76553;BME280;65395;53.168;18.156;2023-12-14T02:12:12;100289.41;;;2.17;90.81
76553;BME280;65395;53.168;18.156;2023-12-14T02:14:38;100284.66;;;2.16;90.82
76553;BME280;65395;53.168;18.156;2023-12-14T02:17:05;100284.55;;;2.15;90.88
76553;BME280;65395;53.168;18.156;2023-12-14T02:19:32;100282.20;;;2.14;90.83
76553;BME280;65395;53.168;18.156;2023-12-14T02:21:59;100284.52;;;2.13;90.92
76553;BME280;65395;53.168;18.156;2023-12-14T02:24:26;100287.08;;;2.13;90.99
76553;BME280;65395;53.168;18.156;2023-12-14T02:26:53;100286.75;;;2.13;90.96
76553;BME280;65395;53.168;18.156;2023-12-14T02:29:20;100287.04;;;2.12;91.02
76553;BME280;65395;53.168;18.156;2023-12-14T02:31:47;100292.08;;;2.12;90.98
76553;BME280;65395;53.168;18.156;2023-12-14T02:34:14;100290.35;;;2.10;91.04
76553;BME280;65395;53.168;18.156;2023-12-14T02:36:41;100290.19;;;2.10;90.98
76553;BME280;65395;53.168;18.156;2023-12-14T02:39:08;100291.17;;;2.10;91.04
76553;BME280;65395;53.168;18.156;2023-12-14T02:41:35;100296.27;;;2.09;91.02
76553;BME280;65395;53.168;18.156;2023-12-14T02:44:02;100300.29;;;2.10;91.02
76553;BME280;65395;53.168;18.156;2023-12-14T02:46:28;100297.89;;;2.10;91.16
76553;BME280;65395;53.168;18.156;2023-12-14T02:48:55;100297.33;;;2.11;91.12
76553;BME280;65395;53.168;18.156;2023-12-14T02:51:23;100301.80;;;2.12;91.13
76553;BME280;65395;53.168;18.156;2023-12-14T02:53:50;100306.55;;;2.12;91.16
76553;BME280;65395;53.168;18.156;2023-12-14T02:56:17;100304.84;;;2.12;91.18
76553;BME280;65395;53.168;18.156;2023-12-14T02:58:44;100305.33;;;2.11;91.21
76553;BME280;65395;53.168;18.156;2023-12-14T03:01:11;100308.66;;;2.11;91.11
76553;BME280;65395;53.168;18.156;2023-12-14T03:03:38;100318.38;;;2.11;91.17
76553;BME280;65395;53.168;18.156;2023-12-14T03:06:06;100317.92;;;2.09;91.12
76553;BME280;65395;53.168;18.156;2023-12-14T03:08:33;100318.83;;;2.09;91.06
76553;BME280;65395;53.168;18.156;2023-12-14T03:10:59;100320.63;;;2.08;91.07
76553;BME280;65395;53.168;18.156;2023-12-14T03:13:26;100323.34;;;2.08;91.05
76553;BME280;65395;53.168;18.156;2023-12-14T03:15:55;100320.79;;;2.09;91.11
76553;BME280;65395;53.168;18.156;2023-12-14T03:18:21;100322.05;;;2.09;91.03
76553;BME280;65395;53.168;18.156;2023-12-14T03:20:48;100328.43;;;2.09;90.94
76553;BME280;65395;53.168;18.156;2023-12-14T03:23:15;100329.95;;;2.09;90.98
76553;BME280;65395;53.168;18.156;2023-12-14T03:25:42;100330.77;;;2.09;90.85
76553;BME280;65395;53.168;18.156;2023-12-14T03:28:09;100331.84;;;2.10;90.80
76553;BME280;65395;53.168;18.156;2023-12-14T03:30:35;100335.74;;;2.11;90.72
76553;BME280;65395;53.168;18.156;2023-12-14T03:33:02;100335.79;;;2.10;90.65
76553;BME280;65395;53.168;18.156;2023-12-14T03:35:31;100338.93;;;2.11;90.64
76553;BME280;65395;53.168;18.156;2023-12-14T03:37:58;100342.09;;;2.11;90.56
76553;BME280;65395;53.168;18.156;2023-12-14T03:40:25;100342.55;;;2.10;90.55
76553;BME280;65395;53.168;18.156;2023-12-14T03:42:52;100347.61;;;2.11;90.50
76553;BME280;65395;53.168;18.156;2023-12-14T03:45:19;100346.63;;;2.12;90.53
76553;BME280;65395;53.168;18.156;2023-12-14T03:47:46;100350.73;;;2.14;90.52
76553;BME280;65395;53.168;18.156;2023-12-14T03:50:13;100350.90;;;2.15;90.44
76553;BME280;65395;53.168;18.156;2023-12-14T03:52:40;100353.95;;;2.14;90.33
76553;BME280;65395;53.168;18.156;2023-12-14T03:55:07;100360.29;;;2.13;90.33
76553;BME280;65395;53.168;18.156;2023-12-14T03:57:35;100359.82;;;2.13;90.31
76553;BME280;65395;53.168;18.156;2023-12-14T04:00:02;100358.52;;;2.13;90.36
76553;BME280;65395;53.168;18.156;2023-12-14T04:02:31;100363.14;;;2.13;90.25
76553;BME280;65395;53.168;18.156;2023-12-14T04:04:58;100363.83;;;2.13;90.26
76553;BME280;65395;53.168;18.156;2023-12-14T04:07:25;100366.91;;;2.12;90.18
76553;BME280;65395;53.168;18.156;2023-12-14T04:09:52;100370.51;;;2.12;90.24
76553;BME280;65395;53.168;18.156;2023-12-14T04:12:19;100376.80;;;2.12;90.18
76553;BME280;65395;53.168;18.156;2023-12-14T04:14:46;100379.27;;;2.13;90.09
76553;BME280;65395;53.168;18.156;2023-12-14T04:17:13;100379.86;;;2.12;90.03
76553;BME280;65395;53.168;18.156;2023-12-14T04:19:40;100384.41;;;2.11;90.02
76553;BME280;65395;53.168;18.156;2023-12-14T04:22:07;100387.05;;;2.09;89.94
76553;BME280;65395;53.168;18.156;2023-12-14T04:24:34;100385.23;;;2.09;90.07
76553;BME280;65395;53.168;18.156;2023-12-14T04:27:01;100386.44;;;2.10;90.01
76553;BME280;65395;53.168;18.156;2023-12-14T04:29:28;100386.81;;;2.11;89.97
76553;BME280;65395;53.168;18.156;2023-12-14T04:31:55;100386.09;;;2.11;90.01
76553;BME280;65395;53.168;18.156;2023-12-14T04:34:22;100387.64;;;2.11;90.01
76553;BME280;65395;53.168;18.156;2023-12-14T04:36:49;100387.73;;;2.11;89.86
76553;BME280;65395;53.168;18.156;2023-12-14T04:39:16;100394.75;;;2.10;89.83
76553;BME280;65395;53.168;18.156;2023-12-14T04:41:43;100395.67;;;2.09;89.69
76553;BME280;65395;53.168;18.156;2023-12-14T04:44:10;100397.94;;;2.08;89.73
76553;BME280;65395;53.168;18.156;2023-12-14T04:46:38;100404.14;;;2.05;89.84
76553;BME280;65395;53.168;18.156;2023-12-14T04:49:05;100410.66;;;2.04;89.77
76553;BME280;65395;53.168;18.156;2023-12-14T04:51:32;100410.06;;;2.02;89.84
76553;BME280;65395;53.168;18.156;2023-12-14T04:53:59;100414.36;;;2.01;89.82
76553;BME280;65395;53.168;18.156;2023-12-14T04:56:26;100413.95;;;2.02;89.98
76553;BME280;65395;53.168;18.156;2023-12-14T04:58:53;100418.11;;;1.99;89.86
76553;BME280;65395;53.168;18.156;2023-12-14T05:01:19;100416.42;;;1.95;89.88
76553;BME280;65395;53.168;18.156;2023-12-14T05:03:46;100417.20;;;1.91;89.98
76553;BME280;65395;53.168;18.156;2023-12-14T05:06:13;100417.17;;;1.86;90.08
76553;BME280;65395;53.168;18.156;2023-12-14T05:08:40;100415.85;;;1.85;90.13
76553;BME280;65395;53.168;18.156;2023-12-14T05:11:07;100413.98;;;1.82;90.11
76553;BME280;65395;53.168;18.156;2023-12-14T05:13:34;100413.14;;;1.79;90.18
76553;BME280;65395;53.168;18.156;2023-12-14T05:16:01;100413.35;;;1.77;90.14
76553;BME280;65395;53.168;18.156;2023-12-14T05:18:28;100420.63;;;1.74;90.11
76553;BME280;65395;53.168;18.156;2023-12-14T05:20:55;100421.11;;;1.72;90.20
76553;BME280;65395;53.168;18.156;2023-12-14T05:23:22;100426.57;;;1.72;90.26
76553;BME280;65395;53.168;18.156;2023-12-14T05:25:50;100425.75;;;1.72;90.26
76553;BME280;65395;53.168;18.156;2023-12-14T05:28:17;100435.17;;;1.73;90.31
76553;BME280;65395;53.168;18.156;2023-12-14T05:30:44;100439.16;;;1.75;90.30
76553;BME280;65395;53.168;18.156;2023-12-14T05:33:11;100438.27;;;1.76;90.36
76553;BME280;65395;53.168;18.156;2023-12-14T05:35:38;100445.52;;;1.77;90.28
76553;BME280;65395;53.168;18.156;2023-12-14T05:38:05;100448.02;;;1.77;90.25
76553;BME280;65395;53.168;18.156;2023-12-14T05:40:32;100443.33;;;1.79;90.29
76553;BME280;65395;53.168;18.156;2023-12-14T05:42:59;100445.71;;;1.79;90.30
76553;BME280;65395;53.168;18.156;2023-12-14T05:45:26;100447.07;;;1.79;90.16
76553;BME280;65395;53.168;18.156;2023-12-14T05:47:53;100448.09;;;1.80;90.21
76553;BME280;65395;53.168;18.156;2023-12-14T05:50:20;100453.15;;;1.83;90.16
76553;BME280;65395;53.168;18.156;2023-12-14T05:52:48;100455.06;;;1.87;90.22
76553;BME280;65395;53.168;18.156;2023-12-14T05:55:15;100459.48;;;1.89;90.20
76553;BME280;65395;53.168;18.156;2023-12-14T05:57:45;100462.58;;;1.91;90.17
76553;BME280;65395;53.168;18.156;2023-12-14T06:00:12;100455.44;;;1.93;90.13
76553;BME280;65395;53.168;18.156;2023-12-14T06:02:39;100462.08;;;1.95;90.16
76553;BME280;65395;53.168;18.156;2023-12-14T06:05:07;100460.77;;;1.97;90.09
76553;BME280;65395;53.168;18.156;2023-12-14T06:07:34;100461.27;;;1.99;90.04
76553;BME280;65395;53.168;18.156;2023-12-14T06:10:01;100463.98;;;2.00;89.95
76553;BME280;65395;53.168;18.156;2023-12-14T06:12:28;100468.45;;;1.99;89.85
76553;BME280;65395;53.168;18.156;2023-12-14T06:14:55;100470.92;;;1.99;89.95
76553;BME280;65395;53.168;18.156;2023-12-14T06:17:22;100473.11;;;1.99;89.92
76553;BME280;65395;53.168;18.156;2023-12-14T06:19:49;100475.92;;;1.99;89.86
76553;BME280;65395;53.168;18.156;2023-12-14T06:22:16;100482.73;;;1.98;89.82
76553;BME280;65395;53.168;18.156;2023-12-14T06:24:43;100488.09;;;1.99;89.89
76553;BME280;65395;53.168;18.156;2023-12-14T06:27:10;100493.34;;;1.98;89.81
76553;BME280;65395;53.168;18.156;2023-12-14T06:29:37;100497.37;;;1.98;89.74
76553;BME280;65395;53.168;18.156;2023-12-14T06:32:04;100502.23;;;1.97;89.78
76553;BME280;65395;53.168;18.156;2023-12-14T06:34:31;100503.58;;;1.96;89.78
76553;BME280;65395;53.168;18.156;2023-12-14T06:36:58;100510.60;;;1.96;89.91
76553;BME280;65395;53.168;18.156;2023-12-14T06:39:26;100513.06;;;1.97;89.95
76553;BME280;65395;53.168;18.156;2023-12-14T06:41:53;100515.38;;;1.98;89.97
76553;BME280;65395;53.168;18.156;2023-12-14T06:44:20;100520.02;;;1.99;89.98
76553;BME280;65395;53.168;18.156;2023-12-14T06:46:47;100521.99;;;1.99;89.88
76553;BME280;65395;53.168;18.156;2023-12-14T06:49:14;100524.01;;;1.98;89.89
76553;BME280;65395;53.168;18.156;2023-12-14T06:51:41;100527.06;;;1.97;89.90
76553;BME280;65395;53.168;18.156;2023-12-14T06:54:08;100529.61;;;1.98;89.81
76553;BME280;65395;53.168;18.156;2023-12-14T06:56:36;100533.71;;;1.96;89.57
76553;BME280;65395;53.168;18.156;2023-12-14T06:59:04;100538.23;;;1.95;89.61
76553;BME280;65395;53.168;18.156;2023-12-14T07:01:31;100539.40;;;1.93;89.49
76553;BME280;65395;53.168;18.156;2023-12-14T07:03:58;100545.17;;;1.91;89.41
76553;BME280;65395;53.168;18.156;2023-12-14T07:06:25;100549.81;;;1.92;89.43
76553;BME280;65395;53.168;18.156;2023-12-14T07:08:52;100555.21;;;1.91;89.43
76553;BME280;65395;53.168;18.156;2023-12-14T07:11:19;100557.31;;;1.90;89.27
76553;BME280;65395;53.168;18.156;2023-12-14T07:13:46;100561.67;;;1.90;89.20
76553;BME280;65395;53.168;18.156;2023-12-14T07:16:13;100570.61;;;1.89;89.27
76553;BME280;65395;53.168;18.156;2023-12-14T07:18:41;100577.33;;;1.89;89.26
76553;BME280;65395;53.168;18.156;2023-12-14T07:21:09;100583.70;;;1.89;88.98
76553;BME280;65395;53.168;18.156;2023-12-14T07:23:36;100581.05;;;1.86;88.71
76553;BME280;65395;53.168;18.156;2023-12-14T07:26:04;100581.27;;;1.84;88.86
76553;BME280;65395;53.168;18.156;2023-12-14T07:28:30;100582.64;;;1.83;88.92
76553;BME280;65395;53.168;18.156;2023-12-14T07:30:57;100587.09;;;1.82;88.86
76553;BME280;65395;53.168;18.156;2023-12-14T07:33:26;100592.50;;;1.82;88.79
76553;BME280;65395;53.168;18.156;2023-12-14T07:35:53;100596.07;;;1.81;88.54
76553;BME280;65395;53.168;18.156;2023-12-14T07:38:19;100594.48;;;1.78;88.39
76553;BME280;65395;53.168;18.156;2023-12-14T07:40:46;100593.84;;;1.77;88.51
76553;BME280;65395;53.168;18.156;2023-12-14T07:43:13;100598.84;;;1.77;88.51
76553;BME280;65395;53.168;18.156;2023-12-14T07:45:40;100598.96;;;1.75;88.35
76553;BME280;65395;53.168;18.156;2023-12-14T07:48:07;100609.21;;;1.76;88.55
76553;BME280;65395;53.168;18.156;2023-12-14T07:50:34;100610.86;;;1.78;88.43
76553;BME280;65395;53.168;18.156;2023-12-14T07:53:01;100616.58;;;1.77;88.23
76553;BME280;65395;53.168;18.156;2023-12-14T07:55:30;100614.64;;;1.80;88.36
76553;BME280;65395;53.168;18.156;2023-12-14T07:57:57;100624.17;;;1.81;88.24
76553;BME280;65395;53.168;18.156;2023-12-14T08:00:24;100631.95;;;1.82;88.04
76553;BME280;65395;53.168;18.156;2023-12-14T08:02:51;100635.85;;;1.84;88.15
76553;BME280;65395;53.168;18.156;2023-12-14T08:05:18;100639.79;;;1.86;88.10
76553;BME280;65395;53.168;18.156;2023-12-14T08:07:45;100646.20;;;1.88;87.85
76553;BME280;65395;53.168;18.156;2023-12-14T08:10:12;100650.70;;;1.89;87.70
76553;BME280;65395;53.168;18.156;2023-12-14T08:12:39;100654.47;;;1.89;87.64
76553;BME280;65395;53.168;18.156;2023-12-14T08:15:06;100656.94;;;1.91;87.78
76553;BME280;65395;53.168;18.156;2023-12-14T08:17:35;100655.67;;;1.93;87.75
76553;BME280;65395;53.168;18.156;2023-12-14T08:20:02;100658.83;;;1.95;87.73
76553;BME280;65395;53.168;18.156;2023-12-14T08:22:31;100659.06;;;1.97;87.59
76553;BME280;65395;53.168;18.156;2023-12-14T08:24:57;100663.66;;;1.98;87.55
76553;BME280;65395;53.168;18.156;2023-12-14T08:27:24;100666.36;;;1.99;87.10
76553;BME280;65395;53.168;18.156;2023-12-14T08:29:51;100665.70;;;1.97;86.72
76553;BME280;65395;53.168;18.156;2023-12-14T08:32:18;100669.91;;;1.95;86.60
76553;BME280;65395;53.168;18.156;2023-12-14T08:34:45;100674.32;;;1.92;86.51
76553;BME280;65395;53.168;18.156;2023-12-14T08:37:12;100681.88;;;1.90;86.38
76553;BME280;65395;53.168;18.156;2023-12-14T08:39:39;100684.92;;;1.89;86.53
76553;BME280;65395;53.168;18.156;2023-12-14T08:42:06;100687.73;;;1.90;86.37
76553;BME280;65395;53.168;18.156;2023-12-14T08:44:33;100692.23;;;1.88;85.88
76553;BME280;65395;53.168;18.156;2023-12-14T08:47:00;100694.84;;;1.87;86.02
76553;BME280;65395;53.168;18.156;2023-12-14T08:49:27;100702.30;;;1.86;85.60
76553;BME280;65395;53.168;18.156;2023-12-14T08:51:53;100709.12;;;1.84;85.39
76553;BME280;65395;53.168;18.156;2023-12-14T08:54:20;100712.65;;;1.84;85.63
76553;BME280;65395;53.168;18.156;2023-12-14T08:56:47;100719.75;;;1.85;85.60
76553;BME280;65395;53.168;18.156;2023-12-14T08:59:14;100722.03;;;1.85;85.52
76553;BME280;65395;53.168;18.156;2023-12-14T09:01:41;100731.39;;;1.85;84.94
76553;BME280;65395;53.168;18.156;2023-12-14T09:04:08;100735.61;;;1.83;84.74
76553;BME280;65395;53.168;18.156;2023-12-14T09:06:35;100732.62;;;1.83;84.86
76553;BME280;65395;53.168;18.156;2023-12-14T09:09:02;100739.67;;;1.85;85.10
76553;BME280;65395;53.168;18.156;2023-12-14T09:11:30;100740.23;;;1.87;84.41
76553;BME280;65395;53.168;18.156;2023-12-14T09:13:56;100742.89;;;1.88;84.56
76553;BME280;65395;53.168;18.156;2023-12-14T09:16:23;100745.17;;;1.90;84.77
76553;BME280;65395;53.168;18.156;2023-12-14T09:18:50;100740.63;;;1.91;83.92
76553;BME280;65395;53.168;18.156;2023-12-14T09:21:17;100737.33;;;1.92;84.02
76553;BME280;65395;53.168;18.156;2023-12-14T09:23:44;100742.15;;;1.94;84.28
76553;BME280;65395;53.168;18.156;2023-12-14T09:26:11;100746.66;;;1.96;84.11
76553;BME280;65395;53.168;18.156;2023-12-14T09:28:39;100750.04;;;1.98;83.73
76553;BME280;65395;53.168;18.156;2023-12-14T09:31:06;100751.12;;;2.00;83.79
76553;BME280;65395;53.168;18.156;2023-12-14T09:33:33;100751.38;;;2.04;83.97
76553;BME280;65395;53.168;18.156;2023-12-14T09:35:59;100752.73;;;2.09;83.88
76553;BME280;65395;53.168;18.156;2023-12-14T09:38:27;100752.19;;;2.12;83.48
76553;BME280;65395;53.168;18.156;2023-12-14T09:40:54;100756.48;;;2.16;83.58
76553;BME280;65395;53.168;18.156;2023-12-14T09:43:21;100757.32;;;2.18;83.30
76553;BME280;65395;53.168;18.156;2023-12-14T09:45:51;100758.81;;;2.20;83.27
76553;BME280;65395;53.168;18.156;2023-12-14T09:48:19;100760.38;;;2.23;83.16
76553;BME280;65395;53.168;18.156;2023-12-14T09:50:47;100765.45;;;2.27;83.29
76553;BME280;65395;53.168;18.156;2023-12-14T09:53:15;100766.56;;;2.30;82.35
76553;BME280;65395;53.168;18.156;2023-12-14T09:55:42;100766.90;;;2.31;82.47
76553;BME280;65395;53.168;18.156;2023-12-14T09:58:09;100767.93;;;2.33;82.22
76553;BME280;65395;53.168;18.156;2023-12-14T10:00:39;100775.04;;;2.35;81.93
76553;BME280;65395;53.168;18.156;2023-12-14T10:03:17;100769.90;;;2.36;81.81
76553;BME280;65395;53.168;18.156;2023-12-14T10:05:45;100767.83;;;2.35;81.84
76553;BME280;65395;53.168;18.156;2023-12-14T10:08:12;100767.41;;;2.38;82.38
76553;BME280;65395;53.168;18.156;2023-12-14T10:10:39;100769.20;;;2.44;82.45
76553;BME280;65395;53.168;18.156;2023-12-14T10:13:06;100773.14;;;2.49;81.79
76553;BME280;65395;53.168;18.156;2023-12-14T10:15:44;100771.06;;;2.51;81.53
76553;BME280;65395;53.168;18.156;2023-12-14T10:20:51;100772.91;;;2.59;81.35
76553;BME280;65395;53.168;18.156;2023-12-14T10:23:18;100776.87;;;2.63;81.28
76553;BME280;65395;53.168;18.156;2023-12-14T10:25:46;100778.29;;;2.66;81.44
76553;BME280;65395;53.168;18.156;2023-12-14T10:28:13;100777.92;;;2.68;80.63
76553;BME280;65395;53.168;18.156;2023-12-14T10:30:41;100780.98;;;2.68;80.15
76553;BME280;65395;53.168;18.156;2023-12-14T10:33:08;100784.11;;;2.68;79.82
76553;BME280;65395;53.168;18.156;2023-12-14T10:35:35;100785.17;;;2.69;80.19
76553;BME280;65395;53.168;18.156;2023-12-14T10:38:05;100787.35;;;2.71;80.32
76553;BME280;65395;53.168;18.156;2023-12-14T10:40:33;100790.27;;;2.71;79.82
76553;BME280;65395;53.168;18.156;2023-12-14T10:43:00;100792.18;;;2.73;79.21
76553;BME280;65395;53.168;18.156;2023-12-14T10:45:31;100795.11;;;2.72;79.17
76553;BME280;65395;53.168;18.156;2023-12-14T10:48:00;100796.86;;;2.68;78.58
76553;BME280;65395;53.168;18.156;2023-12-14T10:50:29;100807.48;;;2.67;79.24
76553;BME280;65395;53.168;18.156;2023-12-14T10:52:57;100804.58;;;2.63;77.87
76553;BME280;65395;53.168;18.156;2023-12-14T10:55:36;100805.89;;;2.59;78.48
76553;BME280;65395;53.168;18.156;2023-12-14T10:58:04;100812.55;;;2.59;78.82
76553;BME280;65395;53.168;18.156;2023-12-14T11:00:31;100810.37;;;2.57;78.97
76553;BME280;65395;53.168;18.156;2023-12-14T11:02:59;100814.96;;;2.57;79.07
76553;BME280;65395;53.168;18.156;2023-12-14T11:05:28;100818.20;;;2.56;77.03
76553;BME280;65395;53.168;18.156;2023-12-14T11:08:01;100824.13;;;2.51;77.13
76553;BME280;65395;53.168;18.156;2023-12-14T11:10:40;100825.63;;;2.48;77.97
76553;BME280;65395;53.168;18.156;2023-12-14T11:13:09;100830.01;;;2.46;77.40
76553;BME280;65395;53.168;18.156;2023-12-14T11:15:38;100829.52;;;2.45;77.84
76553;BME280;65395;53.168;18.156;2023-12-14T11:18:25;100835.05;;;2.45;78.26
76553;BME280;65395;53.168;18.156;2023-12-14T11:20:55;100840.30;;;2.45;77.57
76553;BME280;65395;53.168;18.156;2023-12-14T11:23:28;100842.69;;;2.45;77.92
76553;BME280;65395;53.168;18.156;2023-12-14T11:25:59;100845.18;;;2.45;76.97
76553;BME280;65395;53.168;18.156;2023-12-14T11:28:27;100847.70;;;2.44;76.98
76553;BME280;65395;53.168;18.156;2023-12-14T11:30:54;100850.29;;;2.43;76.91
76553;BME280;65395;53.168;18.156;2023-12-14T11:33:22;100854.40;;;2.43;77.45
76553;BME280;65395;53.168;18.156;2023-12-14T11:35:51;100856.35;;;2.42;76.92
76553;BME280;65395;53.168;18.156;2023-12-14T11:38:19;100859.66;;;2.45;77.68
76553;BME280;65395;53.168;18.156;2023-12-14T11:40:48;100858.42;;;2.47;76.56
76553;BME280;65395;53.168;18.156;2023-12-14T11:43:15;100859.41;;;2.46;76.48
76553;BME280;65395;53.168;18.156;2023-12-14T11:45:43;100859.92;;;2.46;76.74
76553;BME280;65395;53.168;18.156;2023-12-14T11:48:11;100862.33;;;2.46;76.25
76553;BME280;65395;53.168;18.156;2023-12-14T11:50:42;100866.33;;;2.46;76.65
76553;BME280;65395;53.168;18.156;2023-12-14T11:53:10;100870.17;;;2.48;76.35
76553;BME280;65395;53.168;18.156;2023-12-14T11:55:39;100869.80;;;2.48;75.96
76553;BME280;65395;53.168;18.156;2023-12-14T11:58:07;100868.73;;;2.47;75.62
76553;BME280;65395;53.168;18.156;2023-12-14T12:00:35;100869.36;;;2.46;76.20
76553;BME280;65395;53.168;18.156;2023-12-14T12:03:15;100874.48;;;2.48;75.75
76553;BME280;65395;53.168;18.156;2023-12-14T12:05:44;100873.42;;;2.47;75.35
76553;BME280;65395;53.168;18.156;2023-12-14T12:08:13;100870.56;;;2.44;75.51
76553;BME280;65395;53.168;18.156;2023-12-14T12:10:42;100873.14;;;2.46;76.54
76553;BME280;65395;53.168;18.156;2023-12-14T12:13:14;100875.35;;;2.47;75.60
76553;BME280;65395;53.168;18.156;2023-12-14T12:15:41;100879.32;;;2.45;74.84
76553;BME280;65395;53.168;18.156;2023-12-14T12:18:10;100885.30;;;2.43;74.49
76553;BME280;65395;53.168;18.156;2023-12-14T12:20:38;100885.95;;;2.42;74.84
76553;BME280;65395;53.168;18.156;2023-12-14T12:23:05;100888.13;;;2.39;73.60
76553;BME280;65395;53.168;18.156;2023-12-14T12:25:33;100886.13;;;2.38;74.06
76553;BME280;65395;53.168;18.156;2023-12-14T12:28:02;100884.02;;;2.37;74.36
76553;BME280;65395;53.168;18.156;2023-12-14T12:30:30;100884.80;;;2.37;74.82
76553;BME280;65395;53.168;18.156;2023-12-14T12:32:57;100885.94;;;2.39;74.91
76553;BME280;65395;53.168;18.156;2023-12-14T12:35:25;100890.42;;;2.39;74.42
76553;BME280;65395;53.168;18.156;2023-12-14T12:37:52;100889.46;;;2.39;74.67
76553;BME280;65395;53.168;18.156;2023-12-14T12:40:21;100890.12;;;2.38;74.48
76553;BME280;65395;53.168;18.156;2023-12-14T12:42:49;100895.93;;;2.37;74.77
76553;BME280;65395;53.168;18.156;2023-12-14T12:45:17;100899.91;;;2.38;74.78
76553;BME280;65395;53.168;18.156;2023-12-14T12:47:45;100904.20;;;2.39;74.58
76553;BME280;65395;53.168;18.156;2023-12-14T12:50:12;100908.64;;;2.37;74.24
76553;BME280;65395;53.168;18.156;2023-12-14T12:52:39;100907.67;;;2.36;74.87
76553;BME280;65395;53.168;18.156;2023-12-14T12:55:08;100911.05;;;2.36;74.62